createdAt,value
2017-06-22T00:00:07.007Z,20.97
2017-06-22T00:02:35.330Z,21.50
2017-06-22T00:05:02.871Z,19.63
2017-06-22T00:07:30.431Z,20.00
2017-06-22T00:09:57.959Z,21.90
2017-06-22T00:12:26.287Z,21.70
2017-06-22T00:14:53.828Z,22.13
2017-06-22T00:17:21.471Z,20.73
2017-06-22T00:19:49.014Z,19.37
2017-06-22T00:22:17.342Z,20.83
2017-06-22T00:24:44.883Z,19.40
2017-06-22T00:27:12.434Z,20.80
2017-06-22T00:29:39.967Z,18.60
2017-06-22T00:32:07.522Z,20.70
2017-06-22T00:34:35.059Z,20.40
2017-06-22T00:37:02.901Z,21.13
2017-06-22T00:39:30.552Z,21.23
2017-06-22T00:41:58.127Z,19.80
2017-06-22T00:44:25.666Z,22.00
2017-06-22T00:46:53.622Z,20.60
2017-06-22T00:49:22.063Z,21.97
2017-06-22T00:51:49.610Z,22.17
2017-06-22T00:54:17.175Z,22.93
2017-06-22T00:56:44.798Z,22.40
2017-06-22T00:59:13.520Z,21.93
2017-06-22T01:01:41.806Z,21.47
2017-06-22T01:04:09.482Z,22.03
2017-06-22T01:06:37.019Z,21.53
2017-06-22T01:09:04.898Z,21.33
2017-06-22T01:11:33.351Z,23.90
2017-06-22T01:14:01.669Z,21.73
2017-06-22T01:16:29.303Z,21.80
2017-06-22T01:18:56.854Z,20.27
2017-06-22T01:21:24.383Z,22.43
2017-06-22T01:23:51.935Z,22.07
2017-06-22T01:26:19.474Z,22.00
2017-06-22T01:28:47.031Z,21.83
2017-06-22T01:31:14.566Z,20.87
2017-06-22T01:33:42.122Z,20.80
2017-06-22T01:36:09.655Z,20.00
2017-06-22T01:38:37.215Z,21.43
2017-06-22T01:41:04.747Z,23.83
2017-06-22T01:43:33.081Z,23.40
2017-06-22T01:46:00.607Z,21.80
2017-06-22T01:48:28.138Z,22.53
2017-06-22T01:50:56.683Z,22.93
2017-06-22T01:53:24.215Z,23.10
2017-06-22T01:55:51.771Z,25.13
2017-06-22T01:58:19.306Z,25.47
2017-06-22T02:00:47.633Z,24.60
2017-06-22T02:03:15.177Z,24.17
2017-06-22T02:05:42.733Z,23.60
2017-06-22T02:08:10.280Z,25.10
2017-06-22T02:10:37.837Z,23.77
2017-06-22T02:13:05.370Z,21.97
2017-06-22T02:15:32.935Z,22.50
2017-06-22T02:18:01.228Z,23.23
2017-06-22T02:20:28.791Z,23.40
2017-06-22T02:22:56.324Z,22.10
2017-06-22T02:25:24.655Z,23.73
2017-06-22T02:27:52.182Z,22.87
2017-06-22T02:30:19.740Z,23.23
2017-06-22T02:32:47.267Z,23.83
2017-06-22T02:35:14.849Z,23.50
2017-06-22T02:37:43.147Z,22.03
2017-06-22T02:40:16.644Z,22.50
2017-06-22T02:42:44.174Z,21.00
2017-06-22T02:45:12.478Z,23.80
2017-06-22T02:47:40.034Z,22.77
2017-06-22T02:50:07.573Z,25.43
2017-06-22T02:52:35.891Z,24.03
2017-06-22T02:55:03.431Z,22.63
2017-06-22T02:57:30.986Z,25.20
2017-06-22T02:59:58.519Z,23.33
2017-06-22T03:02:26.077Z,22.10
2017-06-22T03:04:53.621Z,22.60
2017-06-22T03:07:21.171Z,23.83
2017-06-22T03:09:48.698Z,25.73
2017-06-22T03:12:16.259Z,25.30
2017-06-22T03:14:43.788Z,25.80
2017-06-22T03:17:12.117Z,23.70
2017-06-22T03:19:39.646Z,25.27
2017-06-22T03:22:07.207Z,24.20
2017-06-22T03:24:34.744Z,26.83
2017-06-22T03:27:03.071Z,25.90
2017-06-22T03:29:51.619Z,28.07
2017-06-22T03:32:19.179Z,24.93
2017-06-22T03:34:46.702Z,24.33
2017-06-22T03:37:14.258Z,24.90
2017-06-22T03:39:42.555Z,24.90
2017-06-22T03:42:10.119Z,23.40
2017-06-22T03:44:37.655Z,26.00
2017-06-22T03:47:05.955Z,23.63
2017-06-22T03:49:33.507Z,25.40
2017-06-22T03:52:01.046Z,24.43
2017-06-22T03:54:29.373Z,25.40
2017-06-22T03:56:56.903Z,23.40
2017-06-22T03:59:24.463Z,25.60
2017-06-22T04:01:51.998Z,24.53
2017-06-22T04:04:20.322Z,24.30
2017-06-22T04:06:47.851Z,25.43
2017-06-22T04:09:16.167Z,24.80
2017-06-22T04:11:43.707Z,26.20
2017-06-22T04:14:11.258Z,24.60
2017-06-22T04:16:38.790Z,25.00
2017-06-22T04:19:07.111Z,25.40
2017-06-22T04:21:34.653Z,24.60
2017-06-22T04:24:02.211Z,25.00
2017-06-22T04:26:29.743Z,24.30
2017-06-22T04:28:57.308Z,24.90
2017-06-22T04:31:25.616Z,24.60
2017-06-22T04:33:53.171Z,25.10
2017-06-22T04:36:20.700Z,24.00
2017-06-22T04:38:48.264Z,24.47
2017-06-22T04:41:15.803Z,23.53
2017-06-22T04:43:43.334Z,26.30
2017-06-22T04:46:10.894Z,24.90
2017-06-22T04:48:38.429Z,25.63
2017-06-22T04:51:05.987Z,26.63
2017-06-22T04:53:33.526Z,26.47
2017-06-22T04:56:01.871Z,25.37
2017-06-22T04:58:29.407Z,26.00
2017-06-22T05:00:56.975Z,26.40
2017-06-22T05:03:24.507Z,26.40
2017-06-22T05:05:52.067Z,27.30
2017-06-22T05:08:19.606Z,28.17
2017-06-22T05:10:47.939Z,24.87
2017-06-22T05:13:15.478Z,26.40
2017-06-22T05:15:43.042Z,25.77
2017-06-22T05:18:10.583Z,25.30
2017-06-22T05:20:38.187Z,25.63
2017-06-22T05:23:05.722Z,23.57
2017-06-22T05:25:33.288Z,24.20
2017-06-22T05:28:00.822Z,22.97
2017-06-22T05:30:28.378Z,22.33
2017-06-22T05:32:55.914Z,25.30
2017-06-22T05:35:24.263Z,25.03
2017-06-22T05:37:51.799Z,21.60
2017-06-22T05:40:19.338Z,23.33
2017-06-22T05:42:46.899Z,24.17
2017-06-22T05:45:14.426Z,22.30
2017-06-22T05:47:41.988Z,21.03
2017-06-22T05:50:10.295Z,21.33
2017-06-22T05:52:37.856Z,21.10
2017-06-22T05:55:05.391Z,22.10
2017-06-22T05:57:33.727Z,21.97
2017-06-22T06:00:01.264Z,22.40
2017-06-22T06:02:28.825Z,20.50
2017-06-22T06:04:56.362Z,20.70
2017-06-22T06:07:23.933Z,19.20
2017-06-22T06:09:51.500Z,18.30
2017-06-22T06:12:19.062Z,18.13
2017-06-22T06:14:46.602Z,16.50
2017-06-22T06:17:14.167Z,16.20
2017-06-22T06:19:41.711Z,16.83
2017-06-22T06:22:10.032Z,14.93
2017-06-22T06:24:37.575Z,14.50
2017-06-22T06:27:05.140Z,14.67
2017-06-22T06:29:32.686Z,14.20
2017-06-22T06:32:00.218Z,15.50
2017-06-22T06:34:28.548Z,15.37
2017-06-22T06:36:56.091Z,15.57
2017-06-22T06:39:23.648Z,16.17
2017-06-22T06:41:51.178Z,15.30
2017-06-22T06:44:19.503Z,15.90
2017-06-22T06:46:47.051Z,17.30
2017-06-22T06:49:14.618Z,17.37
2017-06-22T06:51:42.151Z,16.33
2017-06-22T06:54:09.702Z,16.87
2017-06-22T06:56:37.240Z,17.47
2017-06-22T06:59:05.573Z,17.60
2017-06-22T07:01:33.111Z,17.00
2017-06-22T07:04:00.670Z,17.77
2017-06-22T07:06:28.212Z,18.73
2017-06-22T07:08:56.532Z,16.67
2017-06-22T07:11:24.067Z,16.93
2017-06-22T07:13:51.627Z,17.30
2017-06-22T07:16:19.163Z,17.07
2017-06-22T07:18:47.491Z,16.27
2017-06-22T07:21:15.041Z,16.83
2017-06-22T07:23:42.611Z,16.50
2017-06-22T07:26:10.153Z,15.93
2017-06-22T07:28:37.683Z,17.40
2017-06-22T07:31:06.003Z,17.23
2017-06-22T07:33:33.561Z,16.23
2017-06-22T07:36:01.135Z,14.77
2017-06-22T07:38:28.665Z,14.90
2017-06-22T07:40:56.228Z,14.10
2017-06-22T07:43:23.771Z,15.47
2017-06-22T07:45:51.330Z,14.70
2017-06-22T07:48:18.859Z,14.30
2017-06-22T07:50:46.419Z,13.33
2017-06-22T07:53:13.955Z,14.43
2017-06-22T07:55:41.518Z,13.83
2017-06-22T07:58:09.050Z,12.70
2017-06-22T08:00:36.602Z,13.37
2017-06-22T08:03:04.141Z,12.50
2017-06-22T08:05:32.467Z,11.67
2017-06-22T08:08:00.002Z,12.23
2017-06-22T08:10:27.558Z,11.53
2017-06-22T08:12:55.096Z,11.50
2017-06-22T08:15:23.415Z,11.70
2017-06-22T08:17:50.944Z,11.20
2017-06-22T08:20:18.515Z,11.30
2017-06-22T08:22:46.047Z,12.13
2017-06-22T08:25:14.346Z,12.70
2017-06-22T08:27:41.902Z,13.33
2017-06-22T08:30:09.439Z,12.27
2017-06-22T08:32:37.762Z,12.50
2017-06-22T08:35:05.296Z,11.50
2017-06-22T08:37:32.852Z,10.90
2017-06-22T08:40:00.393Z,11.23
2017-06-22T08:42:27.950Z,11.90
2017-06-22T08:44:56.248Z,9.80
2017-06-22T08:47:23.798Z,11.00
2017-06-22T08:49:52.091Z,10.60
2017-06-22T08:52:19.649Z,11.87
2017-06-22T08:54:47.184Z,10.83
2017-06-22T08:57:15.515Z,10.00
2017-06-22T08:59:43.046Z,9.13
2017-06-22T09:02:10.600Z,8.90
2017-06-22T09:04:38.135Z,8.80
2017-06-22T09:07:05.689Z,8.77
2017-06-22T09:09:33.223Z,9.40
2017-06-22T09:12:00.785Z,9.40
2017-06-22T09:14:28.315Z,8.50
2017-06-22T09:16:55.887Z,9.00
2017-06-22T09:19:23.415Z,9.60
2017-06-22T09:21:50.943Z,9.60
2017-06-22T09:24:18.495Z,8.33
2017-06-22T09:26:46.023Z,8.87
2017-06-22T09:29:13.586Z,8.50
2017-06-22T09:31:41.128Z,9.53
2017-06-22T09:34:08.683Z,9.03
2017-06-22T09:36:36.211Z,9.17
2017-06-22T09:39:04.526Z,9.13
2017-06-22T09:41:32.056Z,8.90
2017-06-22T09:44:00.377Z,8.70
2017-06-22T09:46:27.918Z,9.63
2017-06-22T09:48:55.470Z,8.83
2017-06-22T09:51:23.027Z,9.10
2017-06-22T09:53:50.586Z,9.20
2017-06-22T09:56:18.110Z,8.73
2017-06-22T09:58:45.668Z,9.33
2017-06-22T10:01:13.197Z,9.90
2017-06-22T10:03:40.752Z,9.00
2017-06-22T10:06:08.287Z,9.40
2017-06-22T10:08:35.834Z,8.60
2017-06-22T10:11:03.367Z,9.13
2017-06-22T10:13:30.899Z,8.77
2017-06-22T10:15:58.448Z,8.63
2017-06-22T10:18:25.975Z,9.10
2017-06-22T10:20:53.531Z,8.87
2017-06-22T10:23:21.847Z,9.10
2017-06-22T10:25:49.428Z,8.90
2017-06-22T10:28:16.954Z,9.57
2017-06-22T10:30:44.507Z,9.30
2017-06-22T10:33:12.038Z,11.70
2017-06-22T10:35:40.367Z,9.10
2017-06-22T10:38:07.898Z,9.40
2017-06-22T10:40:35.450Z,9.47
2017-06-22T10:43:02.985Z,9.93
2017-06-22T10:45:30.782Z,8.87
2017-06-22T10:47:58.312Z,8.40
2017-06-22T10:50:26.630Z,8.83
2017-06-22T10:52:54.179Z,9.00
2017-06-22T10:55:21.761Z,9.43
2017-06-22T10:57:49.299Z,9.60
2017-06-22T11:00:16.863Z,9.40
2017-06-22T11:02:44.395Z,8.47
2017-06-22T11:05:12.722Z,9.47
2017-06-22T11:07:40.260Z,8.60
2017-06-22T11:10:07.787Z,9.30
2017-06-22T11:12:36.114Z,9.93
2017-06-22T11:15:03.646Z,9.47
2017-06-22T11:17:31.210Z,10.00
2017-06-22T11:19:58.742Z,9.30
2017-06-22T11:22:27.070Z,10.53
2017-06-22T11:24:54.598Z,10.13
2017-06-22T11:27:22.159Z,9.67
2017-06-22T11:29:49.700Z,10.20
2017-06-22T11:32:17.262Z,9.80
2017-06-22T11:34:45.558Z,12.13
2017-06-22T11:37:13.122Z,10.50
2017-06-22T11:39:40.671Z,11.07
2017-06-22T11:42:08.991Z,10.67
2017-06-22T11:44:36.524Z,10.73
2017-06-22T11:47:04.083Z,10.20
2017-06-22T11:49:31.618Z,10.67
2017-06-22T11:51:59.951Z,10.60
2017-06-22T11:54:27.501Z,9.87
2017-06-22T11:56:55.058Z,11.50
2017-06-22T11:59:22.607Z,11.70
2017-06-22T12:01:50.177Z,11.67
2017-06-22T12:04:17.723Z,11.23
2017-06-22T12:06:45.320Z,11.33
2017-06-22T12:09:12.858Z,11.27
2017-06-22T12:11:40.398Z,10.60
2017-06-22T12:14:07.967Z,10.97
2017-06-22T12:16:35.502Z,11.73
2017-06-22T12:19:03.831Z,12.27
2017-06-22T12:21:31.363Z,11.30
2017-06-22T12:23:58.954Z,10.13
2017-06-22T12:26:26.492Z,10.50
2017-06-22T19:23:33.507Z,7.60
2017-06-22T19:26:01.049Z,6.70
2017-06-22T19:28:29.664Z,6.97
2017-06-22T19:30:58.163Z,6.17
2017-06-22T19:33:25.803Z,7.10
2017-06-22T19:35:53.330Z,6.47
2017-06-22T19:38:20.883Z,7.20
2017-06-22T19:40:49.175Z,6.47
2017-06-22T19:43:16.727Z,7.00
2017-06-22T19:45:44.579Z,6.93
2017-06-22T19:48:12.900Z,6.90
2017-06-22T19:50:40.423Z,7.03
2017-06-22T19:53:08.738Z,7.03
2017-06-22T19:55:43.887Z,7.77
2017-06-22T19:58:12.341Z,7.23
2017-06-22T20:00:40.190Z,7.33
2017-06-22T20:03:07.746Z,7.23
2017-06-22T20:05:35.284Z,6.70
2017-06-22T20:08:02.844Z,6.37
2017-06-22T20:10:30.370Z,7.30
2017-06-22T20:12:58.710Z,7.20
2017-06-22T20:15:26.239Z,7.33
2017-06-22T20:17:53.883Z,7.33
2017-06-22T20:20:21.897Z,7.80
2017-06-22T20:22:49.454Z,9.00
2017-06-22T20:25:17.693Z,6.73
2017-06-22T20:27:45.245Z,7.73
2017-06-22T20:30:13.567Z,9.10
2017-06-22T20:32:41.100Z,7.70
2017-06-22T20:35:08.657Z,8.03
2017-06-22T20:37:36.268Z,8.63
2017-06-22T20:40:03.836Z,8.03
2017-06-22T20:42:31.398Z,9.70
2017-06-22T20:44:58.964Z,9.20
2017-06-22T20:47:26.508Z,8.20
2017-06-22T20:49:54.194Z,7.93
2017-06-22T20:52:22.539Z,8.47
2017-06-22T20:54:50.099Z,7.43
2017-06-22T20:57:17.672Z,8.37
2017-06-22T20:59:45.255Z,8.27
2017-06-22T21:02:13.545Z,7.97
2017-06-22T21:04:41.102Z,7.67
2017-06-22T21:07:09.403Z,8.83
2017-06-22T21:09:36.930Z,8.20
2017-06-22T21:12:05.272Z,8.63
2017-06-22T21:14:32.932Z,9.33
2017-06-22T21:17:00.502Z,7.03
2017-06-22T21:19:28.029Z,7.80
2017-06-22T21:21:55.610Z,7.20
2017-06-22T21:24:23.217Z,8.00
2017-06-22T21:26:50.816Z,9.03
2017-06-22T21:29:18.347Z,8.43
2017-06-22T21:31:45.899Z,7.70
2017-06-22T21:34:14.193Z,8.10
2017-06-22T21:36:41.751Z,7.80
2017-06-22T21:39:09.282Z,7.93
2017-06-22T21:41:37.607Z,8.77
2017-06-22T21:44:05.134Z,8.00
2017-06-22T21:46:33.455Z,8.60
2017-06-22T21:49:00.984Z,9.20
2017-06-22T21:51:28.530Z,7.70
2017-06-22T21:53:56.840Z,9.53
2017-06-22T21:56:24.397Z,10.40
2017-06-22T21:58:51.935Z,8.93
2017-06-22T22:01:19.507Z,10.70
2017-06-22T22:03:47.044Z,11.00
2017-06-22T22:06:15.346Z,11.13
2017-06-22T22:08:42.906Z,10.10
2017-06-22T22:11:10.438Z,11.60
2017-06-22T22:13:38.758Z,10.47
2017-06-22T22:16:06.296Z,11.50
2017-06-22T22:18:33.859Z,10.40
2017-06-22T22:21:01.391Z,10.93
2017-06-22T22:23:29.714Z,10.63
2017-06-22T22:25:57.247Z,11.70
2017-06-22T22:28:24.839Z,11.27
2017-06-22T22:51:06.398Z,13.80
2017-06-22T22:53:33.962Z,14.40
2017-06-22T22:56:01.487Z,13.50
2017-06-22T22:58:29.181Z,13.90
2017-06-22T23:00:56.761Z,14.13
2017-06-22T23:03:24.334Z,14.07
2017-06-22T23:05:51.867Z,13.30
2017-06-22T23:08:20.279Z,15.10
2017-06-22T23:10:47.934Z,15.73
2017-06-22T23:13:15.482Z,14.20
2017-06-22T23:15:43.810Z,14.43
2017-06-22T23:18:11.338Z,15.40
2017-06-22T23:20:39.064Z,16.43
2017-06-22T23:23:06.646Z,15.70
2017-06-22T23:25:34.215Z,15.83
2017-06-22T23:28:01.743Z,16.03
2017-06-22T23:30:29.483Z,16.97
2017-06-22T23:32:57.109Z,15.40
2017-06-22T23:35:24.686Z,16.20
2017-06-22T23:37:52.219Z,16.50
2017-06-22T23:40:19.774Z,16.83
2017-06-22T23:42:47.348Z,16.70
2017-06-22T23:45:14.902Z,15.90
2017-06-22T23:47:42.431Z,18.10
2017-06-22T23:50:09.995Z,18.80
2017-06-22T23:52:38.292Z,20.67
2017-06-22T23:55:05.847Z,20.43
2017-06-22T23:57:33.525Z,23.83
